sensor_id;sensor_type;location;lat;lon;timestamp;temperature;humidity
8372;DHT22;4223;48.724;8.982;2022-10-31T00:00:04;9.20;99.90
8372;DHT22;4223;48.724;8.982;2022-10-31T00:02:31;9.20;99.90
8372;DHT22;4223;48.724;8.982;2022-10-31T00:04:58;9.10;99.90
8372;DHT22;4223;48.724;8.982;2022-10-31T00:07:26;9.10;99.90
8372;DHT22;4223;48.724;8.982;2022-10-31T00:09:53;9.10;99.90
8372;DHT22;4223;48.724;8.982;2022-10-31T00:12:20;9.10;99.90
8372;DHT22;4223;48.724;8.982;2022-10-31T00:14:47;9.10;99.90
8372;DHT22;4223;48.724;8.982;2022-10-31T00:17:13;9.10;99.90
8372;DHT22;4223;48.724;8.982;2022-10-31T00:19:40;9.10;99.90
8372;DHT22;4223;48.724;8.982;2022-10-31T00:22:07;9.10;99.90
8372;DHT22;4223;48.724;8.982;2022-10-31T00:24:35;9.00;99.90
8372;DHT22;4223;48.724;8.982;2022-10-31T00:27:02;9.00;99.90
8372;DHT22;4223;48.724;8.982;2022-10-31T00:29:29;9.00;99.90
8372;DHT22;4223;48.724;8.982;2022-10-31T00:31:56;9.00;99.90
8372;DHT22;4223;48.724;8.982;2022-10-31T00:34:23;8.90;99.90
8372;DHT22;4223;48.724;8.982;2022-10-31T00:36:49;8.90;99.90
8372;DHT22;4223;48.724;8.982;2022-10-31T00:39:16;8.90;99.90
8372;DHT22;4223;48.724;8.982;2022-10-31T00:41:44;8.80;99.90
8372;DHT22;4223;48.724;8.982;2022-10-31T00:44:11;8.80;99.90
8372;DHT22;4223;48.724;8.982;2022-10-31T00:46:38;8.80;99.90
8372;DHT22;4223;48.724;8.982;2022-10-31T00:49:05;8.80;99.90
8372;DHT22;4223;48.724;8.982;2022-10-31T00:51:32;8.80;99.90
8372;DHT22;4223;48.724;8.982;2022-10-31T00:53:58;8.80;99.90
8372;DHT22;4223;48.724;8.982;2022-10-31T00:56:25;8.70;99.90
8372;DHT22;4223;48.724;8.982;2022-10-31T00:58:53;8.80;99.90
8372;DHT22;4223;48.724;8.982;2022-10-31T01:01:20;8.70;99.90
8372;DHT22;4223;48.724;8.982;2022-10-31T01:03:47;8.70;99.90
8372;DHT22;4223;48.724;8.982;2022-10-31T01:06:14;8.80;99.90
8372;DHT22;4223;48.724;8.982;2022-10-31T01:08:41;8.80;99.90
8372;DHT22;4223;48.724;8.982;2022-10-31T01:11:11;8.80;99.90
8372;DHT22;4223;48.724;8.982;2022-10-31T01:13:38;8.80;99.90
8372;DHT22;4223;48.724;8.982;2022-10-31T01:16:10;8.80;99.90
8372;DHT22;4223;48.724;8.982;2022-10-31T01:18:37;8.80;99.90
8372;DHT22;4223;48.724;8.982;2022-10-31T01:21:06;8.80;99.90
8372;DHT22;4223;48.724;8.982;2022-10-31T01:23:34;8.80;99.90
8372;DHT22;4223;48.724;8.982;2022-10-31T01:26:04;8.80;99.90
8372;DHT22;4223;48.724;8.982;2022-10-31T01:28:32;8.80;99.90
8372;DHT22;4223;48.724;8.982;2022-10-31T01:31:04;8.80;99.90
8372;DHT22;4223;48.724;8.982;2022-10-31T01:33:33;8.80;99.90
8372;DHT22;4223;48.724;8.982;2022-10-31T01:36:00;8.80;99.90
8372;DHT22;4223;48.724;8.982;2022-10-31T01:38:27;8.80;99.90
8372;DHT22;4223;48.724;8.982;2022-10-31T01:40:54;8.80;99.90
8372;DHT22;4223;48.724;8.982;2022-10-31T01:43:21;8.80;99.90
8372;DHT22;4223;48.724;8.982;2022-10-31T01:45:51;8.80;99.90
8372;DHT22;4223;48.724;8.982;2022-10-31T01:48:21;8.70;99.90
8372;DHT22;4223;48.724;8.982;2022-10-31T01:50:53;8.70;99.90
8372;DHT22;4223;48.724;8.982;2022-10-31T01:53:22;8.60;99.90
8372;DHT22;4223;48.724;8.982;2022-10-31T01:55:49;8.60;99.90
8372;DHT22;4223;48.724;8.982;2022-10-31T01:58:20;8.50;99.90
8372;DHT22;4223;48.724;8.982;2022-10-31T02:00:51;8.50;99.90
8372;DHT22;4223;48.724;8.982;2022-10-31T02:03:20;8.50;99.90
8372;DHT22;4223;48.724;8.982;2022-10-31T02:05:48;8.50;99.90
8372;DHT22;4223;48.724;8.982;2022-10-31T02:08:20;8.50;99.90
8372;DHT22;4223;48.724;8.982;2022-10-31T02:10:48;8.50;99.90
8372;DHT22;4223;48.724;8.982;2022-10-31T02:13:16;8.50;99.90
8372;DHT22;4223;48.724;8.982;2022-10-31T02:15:44;8.50;99.90
8372;DHT22;4223;48.724;8.982;2022-10-31T02:18:11;8.50;99.90
8372;DHT22;4223;48.724;8.982;2022-10-31T02:20:45;8.40;99.90
8372;DHT22;4223;48.724;8.982;2022-10-31T02:26:38;8.40;99.90
8372;DHT22;4223;48.724;8.982;2022-10-31T02:32:09;8.40;99.90
8372;DHT22;4223;48.724;8.982;2022-10-31T02:34:43;8.40;99.90
8372;DHT22;4223;48.724;8.982;2022-10-31T02:37:14;8.40;99.90
8372;DHT22;4223;48.724;8.982;2022-10-31T02:39:47;8.40;99.90
8372;DHT22;4223;48.724;8.982;2022-10-31T02:42:20;8.40;99.90
8372;DHT22;4223;48.724;8.982;2022-10-31T02:44:53;8.30;99.90
8372;DHT22;4223;48.724;8.982;2022-10-31T02:47:26;8.20;99.90
8372;DHT22;4223;48.724;8.982;2022-10-31T02:49:56;8.20;99.90
8372;DHT22;4223;48.724;8.982;2022-10-31T02:52:26;8.10;99.90
8372;DHT22;4223;48.724;8.982;2022-10-31T02:54:53;8.10;99.90
8372;DHT22;4223;48.724;8.982;2022-10-31T02:57:22;8.10;99.90
8372;DHT22;4223;48.724;8.982;2022-10-31T02:59:54;8.10;99.90
8372;DHT22;4223;48.724;8.982;2022-10-31T03:02:46;8.10;99.90
8372;DHT22;4223;48.724;8.982;2022-10-31T03:05:27;8.10;99.90
8372;DHT22;4223;48.724;8.982;2022-10-31T03:08:03;8.10;99.90
8372;DHT22;4223;48.724;8.982;2022-10-31T03:10:37;8.10;99.90
8372;DHT22;4223;48.724;8.982;2022-10-31T03:13:10;8.10;99.90
8372;DHT22;4223;48.724;8.982;2022-10-31T03:15:42;8.10;99.90
8372;DHT22;4223;48.724;8.982;2022-10-31T03:18:14;8.10;99.90
8372;DHT22;4223;48.724;8.982;2022-10-31T03:20:47;8.00;99.90
8372;DHT22;4223;48.724;8.982;2022-10-31T03:23:18;8.00;99.90
8372;DHT22;4223;48.724;8.982;2022-10-31T03:25:47;8.10;99.90
8372;DHT22;4223;48.724;8.982;2022-10-31T03:28:17;8.10;99.90
8372;DHT22;4223;48.724;8.982;2022-10-31T03:30:46;8.10;99.90
8372;DHT22;4223;48.724;8.982;2022-10-31T03:33:17;8.10;99.90
8372;DHT22;4223;48.724;8.982;2022-10-31T03:35:50;8.10;99.90
8372;DHT22;4223;48.724;8.982;2022-10-31T03:38:20;8.00;99.90
8372;DHT22;4223;48.724;8.982;2022-10-31T03:40:48;8.00;99.90
8372;DHT22;4223;48.724;8.982;2022-10-31T03:43:18;8.00;99.90
8372;DHT22;4223;48.724;8.982;2022-10-31T03:45:47;7.90;99.90
8372;DHT22;4223;48.724;8.982;2022-10-31T03:48:18;7.90;99.90
8372;DHT22;4223;48.724;8.982;2022-10-31T03:50:53;7.90;99.90
8372;DHT22;4223;48.724;8.982;2022-10-31T03:53:27;7.80;99.90
8372;DHT22;4223;48.724;8.982;2022-10-31T03:56:00;7.80;99.90
8372;DHT22;4223;48.724;8.982;2022-10-31T03:58:33;7.80;99.90
8372;DHT22;4223;48.724;8.982;2022-10-31T04:01:05;7.70;99.90
8372;DHT22;4223;48.724;8.982;2022-10-31T04:03:35;7.70;99.90
8372;DHT22;4223;48.724;8.982;2022-10-31T04:06:06;7.70;99.90
8372;DHT22;4223;48.724;8.982;2022-10-31T04:08:39;7.60;99.90
8372;DHT22;4223;48.724;8.982;2022-10-31T04:11:08;7.60;99.90
8372;DHT22;4223;48.724;8.982;2022-10-31T04:13:37;7.60;99.90
8372;DHT22;4223;48.724;8.982;2022-10-31T04:16:07;7.60;99.90
8372;DHT22;4223;48.724;8.982;2022-10-31T04:18:36;7.60;99.90
8372;DHT22;4223;48.724;8.982;2022-10-31T04:21:04;7.60;99.90
8372;DHT22;4223;48.724;8.982;2022-10-31T04:23:32;7.60;99.90
8372;DHT22;4223;48.724;8.982;2022-10-31T04:25:59;7.60;99.90
8372;DHT22;4223;48.724;8.982;2022-10-31T04:28:26;7.60;99.90
8372;DHT22;4223;48.724;8.982;2022-10-31T04:30:53;7.60;99.90
8372;DHT22;4223;48.724;8.982;2022-10-31T04:33:20;7.60;99.90
8372;DHT22;4223;48.724;8.982;2022-10-31T04:35:49;7.60;99.90
8372;DHT22;4223;48.724;8.982;2022-10-31T04:38:15;7.60;99.90
8372;DHT22;4223;48.724;8.982;2022-10-31T04:40:42;7.60;99.90
8372;DHT22;4223;48.724;8.982;2022-10-31T04:43:09;7.70;99.90
8372;DHT22;4223;48.724;8.982;2022-10-31T04:45:37;7.60;99.90
8372;DHT22;4223;48.724;8.982;2022-10-31T04:48:04;7.70;99.90
8372;DHT22;4223;48.724;8.982;2022-10-31T04:50:31;7.60;99.90
8372;DHT22;4223;48.724;8.982;2022-10-31T04:52:59;7.60;99.90
8372;DHT22;4223;48.724;8.982;2022-10-31T04:55:26;7.60;99.90
8372;DHT22;4223;48.724;8.982;2022-10-31T04:57:53;7.60;99.90
8372;DHT22;4223;48.724;8.982;2022-10-31T05:00:21;7.50;99.90
8372;DHT22;4223;48.724;8.982;2022-10-31T05:02:49;7.50;99.90
8372;DHT22;4223;48.724;8.982;2022-10-31T05:05:17;7.40;99.90
8372;DHT22;4223;48.724;8.982;2022-10-31T05:07:46;7.40;99.90
8372;DHT22;4223;48.724;8.982;2022-10-31T05:10:16;7.40;99.90
8372;DHT22;4223;48.724;8.982;2022-10-31T05:12:47;7.30;99.90
8372;DHT22;4223;48.724;8.982;2022-10-31T05:15:15;7.30;99.90
8372;DHT22;4223;48.724;8.982;2022-10-31T05:17:42;7.40;99.90
8372;DHT22;4223;48.724;8.982;2022-10-31T05:20:10;7.40;99.90
8372;DHT22;4223;48.724;8.982;2022-10-31T05:22:37;7.40;99.90
8372;DHT22;4223;48.724;8.982;2022-10-31T05:25:08;7.40;99.90
8372;DHT22;4223;48.724;8.982;2022-10-31T05:27:38;7.30;99.90
8372;DHT22;4223;48.724;8.982;2022-10-31T05:30:06;7.30;99.90
8372;DHT22;4223;48.724;8.982;2022-10-31T05:32:37;7.20;99.90
8372;DHT22;4223;48.724;8.982;2022-10-31T05:35:04;7.20;99.90
8372;DHT22;4223;48.724;8.982;2022-10-31T05:37:33;7.20;99.90
8372;DHT22;4223;48.724;8.982;2022-10-31T05:40:00;7.20;99.90
8372;DHT22;4223;48.724;8.982;2022-10-31T05:42:27;7.20;99.90
8372;DHT22;4223;48.724;8.982;2022-10-31T05:44:55;7.20;99.90
8372;DHT22;4223;48.724;8.982;2022-10-31T05:47:22;7.20;99.90
8372;DHT22;4223;48.724;8.982;2022-10-31T05:49:49;7.20;99.90
8372;DHT22;4223;48.724;8.982;2022-10-31T05:52:16;7.20;99.90
8372;DHT22;4223;48.724;8.982;2022-10-31T05:54:43;7.20;99.90
8372;DHT22;4223;48.724;8.982;2022-10-31T05:57:10;7.20;99.90
8372;DHT22;4223;48.724;8.982;2022-10-31T05:59:36;7.20;99.90
8372;DHT22;4223;48.724;8.982;2022-10-31T06:02:05;7.20;99.90
8372;DHT22;4223;48.724;8.982;2022-10-31T06:04:31;7.20;99.90
8372;DHT22;4223;48.724;8.982;2022-10-31T06:06:58;7.10;99.90
8372;DHT22;4223;48.724;8.982;2022-10-31T06:09:25;7.20;99.90
8372;DHT22;4223;48.724;8.982;2022-10-31T06:11:52;7.20;99.90
8372;DHT22;4223;48.724;8.982;2022-10-31T06:14:19;7.20;99.90
8372;DHT22;4223;48.724;8.982;2022-10-31T06:16:46;7.10;99.90
8372;DHT22;4223;48.724;8.982;2022-10-31T06:19:14;7.10;99.90
8372;DHT22;4223;48.724;8.982;2022-10-31T06:21:41;7.10;99.90
8372;DHT22;4223;48.724;8.982;2022-10-31T06:24:08;7.00;99.90
8372;DHT22;4223;48.724;8.982;2022-10-31T06:26:34;7.00;99.90
8372;DHT22;4223;48.724;8.982;2022-10-31T06:29:01;7.00;99.90
8372;DHT22;4223;48.724;8.982;2022-10-31T06:31:28;7.00;99.90
8372;DHT22;4223;48.724;8.982;2022-10-31T06:33:56;7.10;99.90
8372;DHT22;4223;48.724;8.982;2022-10-31T06:36:24;7.10;99.90
8372;DHT22;4223;48.724;8.982;2022-10-31T06:38:51;7.10;99.90
8372;DHT22;4223;48.724;8.982;2022-10-31T06:41:18;7.20;99.90
8372;DHT22;4223;48.724;8.982;2022-10-31T06:43:46;7.30;99.90
8372;DHT22;4223;48.724;8.982;2022-10-31T06:46:13;7.30;99.90
8372;DHT22;4223;48.724;8.982;2022-10-31T06:48:40;7.40;99.90
8372;DHT22;4223;48.724;8.982;2022-10-31T06:51:08;7.40;99.90
8372;DHT22;4223;48.724;8.982;2022-10-31T06:53:36;7.50;99.90
8372;DHT22;4223;48.724;8.982;2022-10-31T06:56:03;7.50;99.90
8372;DHT22;4223;48.724;8.982;2022-10-31T06:58:30;7.60;99.90
8372;DHT22;4223;48.724;8.982;2022-10-31T07:00:59;7.60;99.90
8372;DHT22;4223;48.724;8.982;2022-10-31T07:03:25;7.70;99.90
8372;DHT22;4223;48.724;8.982;2022-10-31T07:05:54;7.80;99.90
8372;DHT22;4223;48.724;8.982;2022-10-31T07:08:21;7.80;99.90
8372;DHT22;4223;48.724;8.982;2022-10-31T07:10:54;7.90;99.90
8372;DHT22;4223;48.724;8.982;2022-10-31T07:13:21;8.00;99.90
8372;DHT22;4223;48.724;8.982;2022-10-31T07:15:51;8.10;99.90
8372;DHT22;4223;48.724;8.982;2022-10-31T07:18:19;8.20;99.90
8372;DHT22;4223;48.724;8.982;2022-10-31T07:20:46;8.30;99.90
8372;DHT22;4223;48.724;8.982;2022-10-31T07:23:13;8.40;99.90
8372;DHT22;4223;48.724;8.982;2022-10-31T07:25:40;8.50;99.90
8372;DHT22;4223;48.724;8.982;2022-10-31T07:28:08;8.60;99.90
8372;DHT22;4223;48.724;8.982;2022-10-31T07:30:35;8.70;99.90
8372;DHT22;4223;48.724;8.982;2022-10-31T07:33:03;8.80;99.90
8372;DHT22;4223;48.724;8.982;2022-10-31T07:35:30;8.90;99.90
8372;DHT22;4223;48.724;8.982;2022-10-31T07:37:57;9.00;99.90
8372;DHT22;4223;48.724;8.982;2022-10-31T07:40:24;9.10;99.90
8372;DHT22;4223;48.724;8.982;2022-10-31T07:42:52;9.30;99.90
8372;DHT22;4223;48.724;8.982;2022-10-31T07:45:21;9.40;99.90
8372;DHT22;4223;48.724;8.982;2022-10-31T07:47:49;9.50;99.90
8372;DHT22;4223;48.724;8.982;2022-10-31T07:50:18;9.70;99.90
8372;DHT22;4223;48.724;8.982;2022-10-31T07:52:45;9.90;99.90
8372;DHT22;4223;48.724;8.982;2022-10-31T07:55:12;10.10;99.90
8372;DHT22;4223;48.724;8.982;2022-10-31T07:57:39;10.20;99.90
8372;DHT22;4223;48.724;8.982;2022-10-31T08:00:08;10.40;99.90
8372;DHT22;4223;48.724;8.982;2022-10-31T08:02:37;10.50;99.90
8372;DHT22;4223;48.724;8.982;2022-10-31T08:05:04;10.70;99.90
8372;DHT22;4223;48.724;8.982;2022-10-31T08:07:36;10.90;99.90
8372;DHT22;4223;48.724;8.982;2022-10-31T08:10:03;11.00;99.90
8372;DHT22;4223;48.724;8.982;2022-10-31T08:12:30;11.20;99.90
8372;DHT22;4223;48.724;8.982;2022-10-31T08:14:57;11.40;99.90
8372;DHT22;4223;48.724;8.982;2022-10-31T08:17:24;11.60;99.90
8372;DHT22;4223;48.724;8.982;2022-10-31T08:19:52;11.80;99.90
8372;DHT22;4223;48.724;8.982;2022-10-31T08:22:19;12.00;99.90
8372;DHT22;4223;48.724;8.982;2022-10-31T08:24:46;12.20;99.90
8372;DHT22;4223;48.724;8.982;2022-10-31T08:27:13;12.30;97.60
8372;DHT22;4223;48.724;8.982;2022-10-31T08:29:39;12.50;96.40
8372;DHT22;4223;48.724;8.982;2022-10-31T08:32:06;12.80;96.70
8372;DHT22;4223;48.724;8.982;2022-10-31T08:34:33;13.20;97.30
8372;DHT22;4223;48.724;8.982;2022-10-31T08:37:01;13.40;76.50
8372;DHT22;4223;48.724;8.982;2022-10-31T08:39:28;13.60;56.80
8372;DHT22;4223;48.724;8.982;2022-10-31T08:41:55;13.90;55.40
8372;DHT22;4223;48.724;8.982;2022-10-31T08:44:22;14.10;11.80
8372;DHT22;4223;48.724;8.982;2022-10-31T08:46:48;14.00;63.20
8372;DHT22;4223;48.724;8.982;2022-10-31T08:49:15;14.60;33.50
8372;DHT22;4223;48.724;8.982;2022-10-31T08:51:42;15.10;1.00
8372;DHT22;4223;48.724;8.982;2022-10-31T08:54:10;15.30;1.00
8372;DHT22;4223;48.724;8.982;2022-10-31T08:56:37;15.80;1.00
8372;DHT22;4223;48.724;8.982;2022-10-31T08:59:04;16.20;99.90
8372;DHT22;4223;48.724;8.982;2022-10-31T09:01:31;15.90;1.00
8372;DHT22;4223;48.724;8.982;2022-10-31T09:03:58;16.00;1.00
8372;DHT22;4223;48.724;8.982;2022-10-31T09:06:24;16.40;1.00
8372;DHT22;4223;48.724;8.982;2022-10-31T09:08:51;16.70;14.40
8372;DHT22;4223;48.724;8.982;2022-10-31T09:11:19;16.80;99.90
8372;DHT22;4223;48.724;8.982;2022-10-31T09:13:46;17.00;1.00
8372;DHT22;4223;48.724;8.982;2022-10-31T09:16:13;17.00;99.90
8372;DHT22;4223;48.724;8.982;2022-10-31T09:18:40;16.90;99.90
8372;DHT22;4223;48.724;8.982;2022-10-31T09:21:07;17.10;1.00
8372;DHT22;4223;48.724;8.982;2022-10-31T09:23:34;17.00;1.00
8372;DHT22;4223;48.724;8.982;2022-10-31T09:26:01;17.00;28.20
8372;DHT22;4223;48.724;8.982;2022-10-31T09:28:30;17.20;1.00
8372;DHT22;4223;48.724;8.982;2022-10-31T09:30:58;16.60;1.00
8372;DHT22;4223;48.724;8.982;2022-10-31T09:33:25;16.70;1.00
8372;DHT22;4223;48.724;8.982;2022-10-31T09:35:51;17.00;1.00
8372;DHT22;4223;48.724;8.982;2022-10-31T09:38:20;17.20;1.00
8372;DHT22;4223;48.724;8.982;2022-10-31T09:40:51;17.50;33.90
8372;DHT22;4223;48.724;8.982;2022-10-31T09:43:25;17.90;1.00
8372;DHT22;4223;48.724;8.982;2022-10-31T09:46:02;18.10;1.00
8372;DHT22;4223;48.724;8.982;2022-10-31T09:48:54;18.20;99.90
8372;DHT22;4223;48.724;8.982;2022-10-31T09:51:27;18.50;1.00
8372;DHT22;4223;48.724;8.982;2022-10-31T09:54:00;18.10;99.90
8372;DHT22;4223;48.724;8.982;2022-10-31T09:56:30;18.00;1.00
8372;DHT22;4223;48.724;8.982;2022-10-31T09:58:59;18.00;1.00
8372;DHT22;4223;48.724;8.982;2022-10-31T10:01:35;17.80;99.90
8372;DHT22;4223;48.724;8.982;2022-10-31T10:04:17;17.70;99.90
8372;DHT22;4223;48.724;8.982;2022-10-31T10:06:51;17.80;99.90
8372;DHT22;4223;48.724;8.982;2022-10-31T10:09:19;17.80;99.90
8372;DHT22;4223;48.724;8.982;2022-10-31T10:12:09;18.00;1.00
8372;DHT22;4223;48.724;8.982;2022-10-31T10:14:53;18.30;1.00
8372;DHT22;4223;48.724;8.982;2022-10-31T10:17:34;18.70;99.90
8372;DHT22;4223;48.724;8.982;2022-10-31T10:20:18;19.10;99.90
8372;DHT22;4223;48.724;8.982;2022-10-31T10:22:54;19.40;1.00
8372;DHT22;4223;48.724;8.982;2022-10-31T10:25:24;19.50;99.90
8372;DHT22;4223;48.724;8.982;2022-10-31T10:28:10;19.50;1.00
8372;DHT22;4223;48.724;8.982;2022-10-31T10:30:41;19.50;1.00
8372;DHT22;4223;48.724;8.982;2022-10-31T10:33:13;19.40;99.90
8372;DHT22;4223;48.724;8.982;2022-10-31T10:35:43;19.20;99.90
8372;DHT22;4223;48.724;8.982;2022-10-31T10:38:18;19.50;99.90
8372;DHT22;4223;48.724;8.982;2022-10-31T10:40:47;19.60;66.30
8372;DHT22;4223;48.724;8.982;2022-10-31T10:43:23;19.60;99.90
8372;DHT22;4223;48.724;8.982;2022-10-31T10:46:04;19.30;99.90
8372;DHT22;4223;48.724;8.982;2022-10-31T10:48:56;19.40;47.60
8372;DHT22;4223;48.724;8.982;2022-10-31T10:51:32;19.30;1.00
8372;DHT22;4223;48.724;8.982;2022-10-31T10:54:12;19.50;99.90
8372;DHT22;4223;48.724;8.982;2022-10-31T10:56:46;19.50;99.90
8372;DHT22;4223;48.724;8.982;2022-10-31T10:59:19;19.80;1.00
8372;DHT22;4223;48.724;8.982;2022-10-31T11:01:48;20.00;99.90
8372;DHT22;4223;48.724;8.982;2022-10-31T11:04:27;20.40;1.00
8372;DHT22;4223;48.724;8.982;2022-10-31T11:07:03;20.90;87.60
8372;DHT22;4223;48.724;8.982;2022-10-31T11:09:30;21.30;1.00
8372;DHT22;4223;48.724;8.982;2022-10-31T11:11:58;21.30;1.00
8372;DHT22;4223;48.724;8.982;2022-10-31T11:14:27;21.40;1.00
8372;DHT22;4223;48.724;8.982;2022-10-31T11:17:06;21.50;1.00
8372;DHT22;4223;48.724;8.982;2022-10-31T11:19:36;21.50;99.90
8372;DHT22;4223;48.724;8.982;2022-10-31T11:22:07;21.70;99.90
8372;DHT22;4223;48.724;8.982;2022-10-31T11:24:39;21.40;99.90
8372;DHT22;4223;48.724;8.982;2022-10-31T11:27:21;21.70;99.90
8372;DHT22;4223;48.724;8.982;2022-10-31T11:29:49;21.70;1.00
8372;DHT22;4223;48.724;8.982;2022-10-31T11:32:19;21.30;1.00
8372;DHT22;4223;48.724;8.982;2022-10-31T11:34:52;21.10;1.00
8372;DHT22;4223;48.724;8.982;2022-10-31T11:37:22;21.10;1.00
8372;DHT22;4223;48.724;8.982;2022-10-31T11:39:52;21.10;1.00
8372;DHT22;4223;48.724;8.982;2022-10-31T11:42:23;20.90;1.00
8372;DHT22;4223;48.724;8.982;2022-10-31T11:44:52;20.80;1.00
8372;DHT22;4223;48.724;8.982;2022-10-31T11:47:26;20.50;1.00
8372;DHT22;4223;48.724;8.982;2022-10-31T11:49:55;20.10;99.90
8372;DHT22;4223;48.724;8.982;2022-10-31T11:52:25;19.80;99.90
8372;DHT22;4223;48.724;8.982;2022-10-31T11:54:55;19.80;99.90
8372;DHT22;4223;48.724;8.982;2022-10-31T11:57:27;20.00;99.90
8372;DHT22;4223;48.724;8.982;2022-10-31T11:59:56;20.10;99.90
8372;DHT22;4223;48.724;8.982;2022-10-31T12:02:23;20.20;1.00
8372;DHT22;4223;48.724;8.982;2022-10-31T12:04:58;20.20;1.00
8372;DHT22;4223;48.724;8.982;2022-10-31T12:07:27;20.20;99.90
8372;DHT22;4223;48.724;8.982;2022-10-31T12:09:54;20.10;1.00
8372;DHT22;4223;48.724;8.982;2022-10-31T12:12:38;19.90;1.00
8372;DHT22;4223;48.724;8.982;2022-10-31T12:15:27;20.50;1.00
8372;DHT22;4223;48.724;8.982;2022-10-31T12:18:17;20.50;99.90
8372;DHT22;4223;48.724;8.982;2022-10-31T12:20:57;20.60;1.00
8372;DHT22;4223;48.724;8.982;2022-10-31T12:23:36;20.50;1.00
8372;DHT22;4223;48.724;8.982;2022-10-31T12:26:11;20.30;1.00
8372;DHT22;4223;48.724;8.982;2022-10-31T12:28:52;19.40;99.90
8372;DHT22;4223;48.724;8.982;2022-10-31T12:31:32;19.30;99.90
8372;DHT22;4223;48.724;8.982;2022-10-31T12:34:21;19.50;99.90
8372;DHT22;4223;48.724;8.982;2022-10-31T12:36:57;19.50;41.10
8372;DHT22;4223;48.724;8.982;2022-10-31T12:39:35;19.30;1.00
8372;DHT22;4223;48.724;8.982;2022-10-31T12:42:13;19.10;83.80
8372;DHT22;4223;48.724;8.982;2022-10-31T12:45:13;19.10;3.60
8372;DHT22;4223;48.724;8.982;2022-10-31T12:48:06;19.00;99.90
8372;DHT22;4223;48.724;8.982;2022-10-31T12:50:50;18.80;99.90
8372;DHT22;4223;48.724;8.982;2022-10-31T12:53:32;18.80;14.50
8372;DHT22;4223;48.724;8.982;2022-10-31T12:56:12;18.70;99.90
8372;DHT22;4223;48.724;8.982;2022-10-31T12:58:45;18.70;1.00
8372;DHT22;4223;48.724;8.982;2022-10-31T13:01:16;18.60;1.00
8372;DHT22;4223;48.724;8.982;2022-10-31T13:03:48;18.40;99.90
8372;DHT22;4223;48.724;8.982;2022-10-31T13:06:20;18.40;99.90
8372;DHT22;4223;48.724;8.982;2022-10-31T13:08:52;18.40;1.00
8372;DHT22;4223;48.724;8.982;2022-10-31T13:11:23;18.40;1.00
8372;DHT22;4223;48.724;8.982;2022-10-31T13:13:57;18.50;99.90
8372;DHT22;4223;48.724;8.982;2022-10-31T13:16:27;18.50;1.00
8372;DHT22;4223;48.724;8.982;2022-10-31T13:18:57;18.60;99.90
8372;DHT22;4223;48.724;8.982;2022-10-31T13:21:27;18.80;99.90
8372;DHT22;4223;48.724;8.982;2022-10-31T13:24:00;19.20;99.90
8372;DHT22;4223;48.724;8.982;2022-10-31T13:26:35;19.70;99.90
8372;DHT22;4223;48.724;8.982;2022-10-31T13:29:09;19.70;1.00
8372;DHT22;4223;48.724;8.982;2022-10-31T13:31:40;20.60;33.20
8372;DHT22;4223;48.724;8.982;2022-10-31T13:34:16;21.20;1.00
8372;DHT22;4223;48.724;8.982;2022-10-31T13:36:50;20.90;99.90
8372;DHT22;4223;48.724;8.982;2022-10-31T13:39:28;21.20;99.90
8372;DHT22;4223;48.724;8.982;2022-10-31T13:42:01;21.60;99.90
8372;DHT22;4223;48.724;8.982;2022-10-31T13:44:30;21.70;99.90
8372;DHT22;4223;48.724;8.982;2022-10-31T13:47:03;21.50;1.00
8372;DHT22;4223;48.724;8.982;2022-10-31T13:49:38;21.10;1.00
8372;DHT22;4223;48.724;8.982;2022-10-31T13:52:15;21.00;1.00
8372;DHT22;4223;48.724;8.982;2022-10-31T13:54:46;20.70;1.00
8372;DHT22;4223;48.724;8.982;2022-10-31T13:57:17;20.50;99.90
8372;DHT22;4223;48.724;8.982;2022-10-31T13:59:48;20.30;1.00
8372;DHT22;4223;48.724;8.982;2022-10-31T14:02:17;20.20;1.00
8372;DHT22;4223;48.724;8.982;2022-10-31T14:04:48;20.10;1.00
8372;DHT22;4223;48.724;8.982;2022-10-31T14:07:19;20.10;1.00
8372;DHT22;4223;48.724;8.982;2022-10-31T14:09:56;20.00;99.90
8372;DHT22;4223;48.724;8.982;2022-10-31T14:12:28;19.90;1.00
8372;DHT22;4223;48.724;8.982;2022-10-31T14:14:58;19.90;1.00
8372;DHT22;4223;48.724;8.982;2022-10-31T14:17:28;19.50;99.90
8372;DHT22;4223;48.724;8.982;2022-10-31T14:20:32;19.90;1.00
8372;DHT22;4223;48.724;8.982;2022-10-31T14:23:11;20.00;99.90
8372;DHT22;4223;48.724;8.982;2022-10-31T14:25:39;19.80;1.00
8372;DHT22;4223;48.724;8.982;2022-10-31T14:28:19;19.60;99.90
8372;DHT22;4223;48.724;8.982;2022-10-31T14:30:51;19.50;1.00
8372;DHT22;4223;48.724;8.982;2022-10-31T14:33:19;19.60;99.90
8372;DHT22;4223;48.724;8.982;2022-10-31T14:35:51;19.90;1.00
8372;DHT22;4223;48.724;8.982;2022-10-31T14:41:40;19.60;99.90
8372;DHT22;4223;48.724;8.982;2022-10-31T14:47:11;19.40;1.00
8372;DHT22;4223;48.724;8.982;2022-10-31T14:49:59;19.40;99.90
8372;DHT22;4223;48.724;8.982;2022-10-31T14:52:30;19.50;96.20
8372;DHT22;4223;48.724;8.982;2022-10-31T14:54:58;19.50;1.00
8372;DHT22;4223;48.724;8.982;2022-10-31T14:57:30;19.20;92.20
8372;DHT22;4223;48.724;8.982;2022-10-31T15:00:01;19.20;47.60
8372;DHT22;4223;48.724;8.982;2022-10-31T15:02:33;18.90;99.90
8372;DHT22;4223;48.724;8.982;2022-10-31T15:05:05;18.90;99.90
8372;DHT22;4223;48.724;8.982;2022-10-31T15:10:02;18.20;1.00
8372;DHT22;4223;48.724;8.982;2022-10-31T15:12:33;18.30;1.00
8372;DHT22;4223;48.724;8.982;2022-10-31T15:15:12;18.10;1.00
8372;DHT22;4223;48.724;8.982;2022-10-31T15:17:44;17.60;1.00
8372;DHT22;4223;48.724;8.982;2022-10-31T15:20:18;17.60;1.00
8372;DHT22;4223;48.724;8.982;2022-10-31T15:22:46;17.00;3.90
8372;DHT22;4223;48.724;8.982;2022-10-31T15:25:17;17.20;4.30
8372;DHT22;4223;48.724;8.982;2022-10-31T15:27:46;16.80;9.40
8372;DHT22;4223;48.724;8.982;2022-10-31T15:30:17;16.60;17.50
8372;DHT22;4223;48.724;8.982;2022-10-31T15:32:47;16.50;11.60
8372;DHT22;4223;48.724;8.982;2022-10-31T15:35:21;16.30;19.00
8372;DHT22;4223;48.724;8.982;2022-10-31T15:40:17;16.10;48.50
8372;DHT22;4223;48.724;8.982;2022-10-31T15:42:50;16.10;52.80
8372;DHT22;4223;48.724;8.982;2022-10-31T15:45:21;15.80;65.80
8372;DHT22;4223;48.724;8.982;2022-10-31T15:47:54;15.90;66.30
8372;DHT22;4223;48.724;8.982;2022-10-31T15:50:27;15.80;71.70
8372;DHT22;4223;48.724;8.982;2022-10-31T15:52:54;15.80;79.00
8372;DHT22;4223;48.724;8.982;2022-10-31T15:55:24;15.50;79.80
8372;DHT22;4223;48.724;8.982;2022-10-31T15:57:56;15.60;88.40
8372;DHT22;4223;48.724;8.982;2022-10-31T16:00:26;15.40;91.90
8372;DHT22;4223;48.724;8.982;2022-10-31T16:03:04;15.50;92.10
8372;DHT22;4223;48.724;8.982;2022-10-31T16:05:37;15.30;90.40
8372;DHT22;4223;48.724;8.982;2022-10-31T16:08:04;15.30;90.60
8372;DHT22;4223;48.724;8.982;2022-10-31T16:13:17;15.10;93.30
8372;DHT22;4223;48.724;8.982;2022-10-31T16:15:55;14.90;93.70
8372;DHT22;4223;48.724;8.982;2022-10-31T16:18:23;14.80;94.20
8372;DHT22;4223;48.724;8.982;2022-10-31T16:20:51;14.70;94.00
8372;DHT22;4223;48.724;8.982;2022-10-31T16:23:21;14.50;94.00
8372;DHT22;4223;48.724;8.982;2022-10-31T16:25:50;14.40;96.40
8372;DHT22;4223;48.724;8.982;2022-10-31T16:28:20;14.30;99.70
8372;DHT22;4223;48.724;8.982;2022-10-31T16:30:49;14.10;99.90
8372;DHT22;4223;48.724;8.982;2022-10-31T16:33:23;14.00;99.90
8372;DHT22;4223;48.724;8.982;2022-10-31T16:35:51;13.90;99.90
8372;DHT22;4223;48.724;8.982;2022-10-31T16:38:18;13.80;99.90
8372;DHT22;4223;48.724;8.982;2022-10-31T16:40:45;13.70;99.90
8372;DHT22;4223;48.724;8.982;2022-10-31T16:43:14;13.60;99.90
8372;DHT22;4223;48.724;8.982;2022-10-31T16:45:45;13.50;99.90
8372;DHT22;4223;48.724;8.982;2022-10-31T16:48:14;13.30;99.90
8372;DHT22;4223;48.724;8.982;2022-10-31T16:50:42;13.30;99.90
8372;DHT22;4223;48.724;8.982;2022-10-31T16:53:10;13.20;99.90